Time;durP1;ratioP1;P1;durP2;ratioP2;P2;SDS_P1;SDS_P2;PMS_P1;PMS_P2;Temp;Humidity;BMP_temperature;BMP_pressure;BME280_temperature;BME280_humidity;BME280_pressure;Samples;Min_cycle;Max_cycle;Signal;HPM_P1;HPM_P2
2023/10/03 00:00:24;;;;;;;57.03;24.02;;;;;;;;;;4953810;28;20045;-74
2023/10/03 00:02:54;;;;;;;51.88;23.48;;;;;;;;;;4960604;28;20110;-75
2023/10/03 00:05:22;;;;;;;55.20;24.30;;;;;;;;;;4953632;28;20038;-75
2023/10/03 00:07:54;;;;;;;50.08;23.67;;;;;;;;;;4956452;28;20042;-73
2023/10/03 00:10:20;;;;;;;50.28;23.52;;;;;;;;;;4959185;28;20049;-74
2023/10/03 00:12:51;;;;;;;49.75;22.63;;;;;;;;;;4953559;28;20039;-74
2023/10/03 00:15:20;;;;;;;53.75;23.52;;;;;;;;;;4959456;28;20077;-74
2023/10/03 00:17:46;;;;;;;;;;;;;;;;;;4957737;28;20117;-75
2023/10/03 00:20:13;;;;;;;52.60;24.20;;;;;;;;;;4955837;28;20005;-73
2023/10/03 00:22:39;;;;;;;52.35;23.90;;;;;;;;;;4954327;28;20051;-74
2023/10/03 00:25:07;;;;;;;52.75;25.55;;;;;;;;;;4948452;28;20144;-74
2023/10/03 00:27:35;;;;;;;48.05;22.65;;;;;;;;;;4957460;28;20133;-74
2023/10/03 00:30:03;;;;;;;52.08;22.20;;;;;;;;;;4955981;28;20038;-73
2023/10/03 00:32:30;;;;;;;45.88;22.30;;;;;;;;;;4956101;28;20034;-74
2023/10/03 00:34:56;;;;;;;50.53;23.15;;;;;;;;;;4956087;28;20035;-74
2023/10/03 00:37:23;;;;;;;50.78;22.20;;;;;;;;;;4954407;28;20146;-74
2023/10/03 00:39:48;;;;;;;42.13;20.98;;;;;;;;;;4940433;28;20039;-73
2023/10/03 00:42:15;;;;;;;47.58;23.23;;;;;;;;;;4954619;28;20022;-75
2023/10/03 00:44:41;;;;;;;58.10;24.60;;;;;;;;;;4952398;28;20117;-73
2023/10/03 00:47:07;;;;;;;49.88;23.67;;;;;;;;;;4953350;28;20139;-75
2023/10/03 00:49:35;;;;;;;59.50;23.63;;;;;;;;;;4958517;28;20117;-75
2023/10/03 00:52:05;;;;;;;51.20;24.58;;;;;;;;;;4956475;28;20090;-73
2023/10/03 00:54:32;;;;;;;51.35;22.67;;;;;;;;;;4964572;28;20077;-74
2023/10/03 00:56:58;;;;;;;51.28;23.33;;;;;;;;;;4964545;28;21331;-75
2023/10/03 00:59:25;;;;;;;53.90;22.40;;;;;;;;;;4958994;28;20811;-74
2023/10/03 01:01:54;;;;;;;51.63;22.98;;;;;;;;;;4959906;28;20066;-74
2023/10/03 01:04:20;;;;;;;52.45;23.38;;;;;;;;;;4953025;28;20035;-74
2023/10/03 01:06:49;;;;;;;50.78;23.48;;;;;;;;;;4954737;28;20163;-74
2023/10/03 01:09:23;;;;;;;50.38;23.23;;;;;;;;;;4954934;28;20039;-74
2023/10/03 01:11:52;;;;;;;44.95;21.95;;;;;;;;;;4955075;28;20148;-73
2023/10/03 01:14:18;;;;;;;55.90;23.08;;;;;;;;;;4953093;28;20030;-74
2023/10/03 01:16:45;;;;;;;48.00;21.80;;;;;;;;;;4957139;28;20117;-75
2023/10/03 01:19:29;;;;;;;51.50;22.10;;;;;;;;;;4955861;28;20039;-74
2023/10/03 01:21:56;;;;;;;53.25;23.35;;;;;;;;;;4951636;28;20038;-73
2023/10/03 01:24:24;;;;;;;52.22;23.67;;;;;;;;;;4953477;28;20516;-74
2023/10/03 01:26:54;;;;;;;49.00;22.50;;;;;;;;;;4954153;28;20035;-73
2023/10/03 01:29:20;;;;;;;46.15;21.80;;;;;;;;;;4957088;28;20041;-74
2023/10/03 01:31:48;;;;;;;52.80;22.77;;;;;;;;;;4952549;28;20272;-74
2023/10/03 01:34:15;;;;;;;46.55;21.40;;;;;;;;;;4961109;28;20039;-74
2023/10/03 01:36:41;;;;;;;46.15;23.17;;;;;;;;;;4960311;28;20043;-74
2023/10/03 01:39:07;;;;;;;52.13;22.30;;;;;;;;;;4959767;28;20116;-75
2023/10/03 01:41:34;;;;;;;42.53;21.83;;;;;;;;;;4954353;28;20421;-75
2023/10/03 01:44:01;;;;;;;50.20;22.13;;;;;;;;;;4955501;28;20035;-74
2023/10/03 01:46:26;;;;;;;50.85;22.55;;;;;;;;;;4965322;28;20053;-74
2023/10/03 01:48:52;;;;;;;48.25;21.25;;;;;;;;;;4960215;28;20041;-75
2023/10/03 01:51:18;;;;;;;45.95;22.85;;;;;;;;;;4963009;28;20034;-74
2023/10/03 01:53:45;;;;;;;48.85;21.55;;;;;;;;;;4966734;28;20472;-75
2023/10/03 01:56:12;;;;;;;46.55;21.48;;;;;;;;;;4972614;28;20186;-74
2023/10/03 01:58:38;;;;;;;48.08;21.45;;;;;;;;;;4951234;28;20027;-75
2023/10/03 02:01:04;;;;;;;42.47;21.20;;;;;;;;;;4963104;28;20521;-74
2023/10/03 02:03:29;;;;;;;43.58;21.20;;;;;;;;;;4947946;28;20097;-75
2023/10/03 02:05:55;;;;;;;49.30;21.63;;;;;;;;;;4958259;28;20038;-75
2023/10/03 02:08:25;;;;;;;47.50;20.90;;;;;;;;;;4961839;28;20039;-75
2023/10/03 02:10:52;;;;;;;42.83;20.90;;;;;;;;;;4960758;28;20720;-73
2023/10/03 02:13:21;;;;;;;49.45;22.27;;;;;;;;;;4962456;28;20030;-74
2023/10/03 02:15:49;;;;;;;48.42;21.30;;;;;;;;;;4965652;28;20034;-74
2023/10/03 02:18:21;;;;;;;45.35;20.50;;;;;;;;;;4963278;28;20053;-73
2023/10/03 02:20:52;;;;;;;43.42;20.98;;;;;;;;;;4949922;28;20036;-75
2023/10/03 02:23:23;;;;;;;43.63;21.50;;;;;;;;;;4964592;28;20031;-75
2023/10/03 02:26:07;;;;;;;37.88;19.23;;;;;;;;;;4980044;28;20035;-75
2023/10/03 02:28:34;;;;;;;46.92;22.33;;;;;;;;;;4957768;28;20035;-74
2023/10/03 02:31:02;;;;;;;46.05;21.17;;;;;;;;;;4963516;28;20519;-75
2023/10/03 02:33:28;;;;;;;50.58;21.05;;;;;;;;;;4963987;28;20078;-75
2023/10/03 02:35:54;;;;;;;46.40;22.40;;;;;;;;;;4961950;28;20101;-75
2023/10/03 02:38:24;;;;;;;42.47;20.60;;;;;;;;;;4960720;28;20165;-75
2023/10/03 02:40:57;;;;;;;41.38;20.30;;;;;;;;;;4971445;28;20043;-75
2023/10/03 02:43:27;;;;;;;44.30;21.73;;;;;;;;;;4963144;28;21714;-75
2023/10/03 02:45:54;;;;;;;42.92;20.70;;;;;;;;;;4964418;28;20034;-75
2023/10/03 02:48:21;;;;;;;41.40;21.38;;;;;;;;;;4962126;28;20056;-74
2023/10/03 02:50:50;;;;;;;43.08;21.25;;;;;;;;;;4962827;28;20038;-75
2023/10/03 02:53:20;;;;;;;43.70;22.02;;;;;;;;;;4964493;28;20054;-75
2023/10/03 02:55:47;;;;;;;45.05;22.20;;;;;;;;;;4961588;28;20046;-75
2023/10/03 02:58:14;;;;;;;42.45;22.17;;;;;;;;;;4960556;28;20046;-75
2023/10/03 03:00:41;;;;;;;46.03;20.95;;;;;;;;;;4958396;28;20110;-75
2023/10/03 03:03:09;;;;;;;47.10;21.33;;;;;;;;;;4960974;28;20046;-75
2023/10/03 03:05:37;;;;;;;53.80;21.25;;;;;;;;;;4965925;28;20628;-75
2023/10/03 03:08:23;;;;;;;42.80;21.20;;;;;;;;;;4960690;28;20046;-75
2023/10/03 03:10:57;;;;;;;43.47;22.08;;;;;;;;;;4978055;28;20046;-74
2023/10/03 03:13:35;;;;;;;50.17;22.63;;;;;;;;;;4963926;28;20057;-73
2023/10/03 03:16:06;;;;;;;47.80;21.80;;;;;;;;;;4960876;28;20062;-74
2023/10/03 03:18:42;;;;;;;42.70;21.35;;;;;;;;;;4961652;28;20058;-74
2023/10/03 03:21:10;;;;;;;46.35;21.20;;;;;;;;;;4964292;28;20043;-74
2023/10/03 03:23:37;;;;;;;49.73;22.23;;;;;;;;;;4960242;28;20038;-75
2023/10/03 03:28:39;;;;;;;48.25;23.58;;;;;;;;;;4965377;28;20035;-75
2023/10/03 03:31:16;;;;;;;48.70;22.48;;;;;;;;;;4964928;28;20042;-75
2023/10/03 03:33:49;;;;;;;44.63;21.00;;;;;;;;;;4958514;28;20027;-76
2023/10/03 03:36:30;;;;;;;44.17;21.67;;;;;;;;;;4964965;28;20073;-75
2023/10/03 03:38:58;;;;;;;44.65;21.33;;;;;;;;;;4964349;28;20106;-75
2023/10/03 03:41:24;;;;;;;45.15;21.13;;;;;;;;;;4965212;28;20648;-74
2023/10/03 03:43:50;;;;;;;45.47;22.55;;;;;;;;;;4966558;28;20676;-75
2023/10/03 03:46:18;;;;;;;46.70;21.23;;;;;;;;;;4965106;28;20074;-74
2023/10/03 03:48:44;;;;;;;49.38;22.70;;;;;;;;;;4965847;28;20624;-75
2023/10/03 03:51:14;;;;;;;44.60;21.55;;;;;;;;;;4965529;28;20039;-74
2023/10/03 03:53:42;;;;;;;40.97;19.80;;;;;;;;;;4962789;28;20481;-75
2023/10/03 03:56:07;;;;;;;47.15;21.63;;;;;;;;;;4966128;28;20047;-75
2023/10/03 03:58:39;;;;;;;39.92;20.33;;;;;;;;;;4963032;28;20035;-74
2023/10/03 04:01:13;;;;;;;46.92;20.45;;;;;;;;;;4963904;28;20068;-74
2023/10/03 04:03:38;;;;;;;41.42;20.52;;;;;;;;;;4961991;28;20492;-75
2023/10/03 04:06:05;;;;;;;43.25;20.88;;;;;;;;;;4961745;28;20129;-75
2023/10/03 04:08:31;;;;;;;42.97;20.55;;;;;;;;;;4965035;28;20519;-75
2023/10/03 04:10:58;;;;;;;37.78;18.67;;;;;;;;;;4965195;28;20122;-75
2023/10/03 04:13:24;;;;;;;44.70;20.92;;;;;;;;;;4964895;28;20038;-75
2023/10/03 04:15:50;;;;;;;47.33;22.05;;;;;;;;;;4962428;28;20042;-76
2023/10/03 04:18:18;;;;;;;45.22;21.20;;;;;;;;;;4962627;28;20039;-74
2023/10/03 04:20:46;;;;;;;44.53;21.80;;;;;;;;;;4957879;28;20035;-75
2023/10/03 04:23:14;;;;;;;42.47;21.08;;;;;;;;;;4963536;28;20041;-73
2023/10/03 04:25:40;;;;;;;41.22;20.77;;;;;;;;;;4956335;28;20043;-74
2023/10/03 04:28:07;;;;;;;43.13;20.75;;;;;;;;;;4958869;28;20040;-74
2023/10/03 04:30:33;;;;;;;40.42;19.55;;;;;;;;;;4959116;28;20799;-75
2023/10/03 04:32:58;;;;;;;43.17;21.60;;;;;;;;;;4962037;28;20089;-75
2023/10/03 04:35:25;;;;;;;40.70;20.00;;;;;;;;;;4959066;28;20039;-75
2023/10/03 04:37:52;;;;;;;40.15;19.70;;;;;;;;;;4960138;28;20042;-75
2023/10/03 04:40:27;;;;;;;48.60;21.85;;;;;;;;;;4961418;28;20039;-75
2023/10/03 04:42:53;;;;;;;43.17;20.60;;;;;;;;;;4960935;28;20042;-73
2023/10/03 04:45:20;;;;;;;42.30;20.98;;;;;;;;;;4959844;28;20039;-74
2023/10/03 04:47:47;;;;;;;30.05;15.85;;;;;;;;;;4965546;28;20090;-75
2023/10/03 04:50:24;;;;;;;41.10;19.02;;;;;;;;;;4964359;28;20069;-75
2023/10/03 04:52:50;;;;;;;43.80;20.77;;;;;;;;;;4958979;28;20118;-75
2023/10/03 04:55:16;;;;;;;39.88;19.15;;;;;;;;;;4957767;28;20114;-75
2023/10/03 04:57:46;;;;;;;42.40;20.40;;;;;;;;;;4960375;28;20403;-75
2023/10/03 05:00:16;;;;;;;37.92;18.98;;;;;;;;;;4958459;28;20070;-75
2023/10/03 05:02:47;;;;;;;33.97;18.35;;;;;;;;;;4958926;28;20687;-75
2023/10/03 05:05:21;;;;;;;37.60;19.75;;;;;;;;;;4958063;28;20031;-75
2023/10/03 05:07:48;;;;;;;33.42;17.10;;;;;;;;;;4958748;28;20035;-76
2023/10/03 05:10:14;;;;;;;43.85;19.67;;;;;;;;;;4957914;28;20094;-74
2023/10/03 05:12:40;;;;;;;36.33;19.85;;;;;;;;;;4961457;28;20530;-75
2023/10/03 05:15:07;;;;;;;38.15;18.95;;;;;;;;;;4961546;28;20034;-75
2023/10/03 05:17:35;;;;;;;37.10;20.08;;;;;;;;;;4961992;28;20047;-76
2023/10/03 05:20:02;;;;;;;39.88;19.35;;;;;;;;;;4959584;28;20089;-76
2023/10/03 05:22:32;;;;;;;38.78;19.33;;;;;;;;;;4959532;28;20030;-75
2023/10/03 05:24:59;;;;;;;38.47;20.17;;;;;;;;;;4958868;28;20034;-75
2023/10/03 05:27:24;;;;;;;45.63;21.95;;;;;;;;;;4962052;28;20035;-74
2023/10/03 05:29:51;;;;;;;38.83;20.50;;;;;;;;;;4962104;28;20047;-73
2023/10/03 05:32:17;;;;;;;37.60;18.60;;;;;;;;;;4961830;28;20460;-75
2023/10/03 05:34:43;;;;;;;32.58;17.73;;;;;;;;;;4950807;28;20043;-75
2023/10/03 05:37:10;;;;;;;33.42;17.55;;;;;;;;;;4960543;28;20096;-74
2023/10/03 05:39:36;;;;;;;35.00;18.52;;;;;;;;;;4962924;28;20038;-75
2023/10/03 05:42:01;;;;;;;37.13;18.55;;;;;;;;;;4957546;28;20042;-75
2023/10/03 05:44:27;;;;;;;37.35;18.10;;;;;;;;;;4960546;28;20031;-75
2023/10/03 05:46:55;;;;;;;36.53;18.58;;;;;;;;;;4959460;28;20038;-75
2023/10/03 05:49:23;;;;;;;32.78;18.05;;;;;;;;;;4959129;28;20043;-75
2023/10/03 05:51:49;;;;;;;37.42;19.23;;;;;;;;;;4961781;28;20034;-75
2023/10/03 05:54:15;;;;;;;32.85;17.42;;;;;;;;;;4960610;28;20034;-75
2023/10/03 05:56:41;;;;;;;30.75;16.73;;;;;;;;;;4959779;28;20042;-75
2023/10/03 05:59:07;;;;;;;34.88;18.40;;;;;;;;;;4961231;28;20027;-74
2023/10/03 06:01:32;;;;;;;27.85;17.50;;;;;;;;;;4961895;28;20067;-75
2023/10/03 06:03:58;;;;;;;33.67;17.88;;;;;;;;;;4959110;28;20114;-75
2023/10/03 06:06:23;;;;;;;33.63;17.42;;;;;;;;;;4960788;28;20041;-76
2023/10/03 06:08:49;;;;;;;34.92;17.92;;;;;;;;;;4955752;28;20027;-76
2023/10/03 06:11:16;;;;;;;31.52;17.58;;;;;;;;;;4960587;28;20077;-75
2023/10/03 06:13:44;;;;;;;32.45;17.42;;;;;;;;;;4961659;28;20629;-75
2023/10/03 06:16:14;;;;;;;37.78;18.42;;;;;;;;;;4957195;28;20109;-74
2023/10/03 06:18:40;;;;;;;40.10;18.42;;;;;;;;;;4961343;28;20097;-75
2023/10/03 06:21:07;;;;;;;31.92;17.80;;;;;;;;;;4957564;28;20039;-76
2023/10/03 06:23:39;;;;;;;36.15;17.90;;;;;;;;;;4961195;28;20039;-76
2023/10/03 06:26:05;;;;;;;30.05;16.35;;;;;;;;;;4958765;28;20508;-74
2023/10/03 06:28:31;;;;;;;29.85;18.02;;;;;;;;;;4959769;28;20037;-76
2023/10/03 06:30:57;;;;;;;33.13;16.98;;;;;;;;;;4963504;28;20031;-75
2023/10/03 06:33:27;;;;;;;30.80;17.75;;;;;;;;;;4962349;28;20329;-75
2023/10/03 06:35:52;;;;;;;29.55;17.08;;;;;;;;;;4965115;28;20038;-75
2023/10/03 06:38:23;;;;;;;32.15;16.65;;;;;;;;;;4964224;28;20443;-76
2023/10/03 06:40:49;;;;;;;33.95;17.88;;;;;;;;;;4962478;28;20034;-75
2023/10/03 06:43:14;;;;;;;32.20;17.90;;;;;;;;;;4964612;28;20109;-76
2023/10/03 06:45:40;;;;;;;32.28;17.67;;;;;;;;;;4959643;28;20047;-75
2023/10/03 06:48:06;;;;;;;35.35;17.58;;;;;;;;;;4949391;28;20130;-76
2023/10/03 06:50:32;;;;;;;34.30;17.92;;;;;;;;;;4957671;28;20035;-73
2023/10/03 06:52:58;;;;;;;26.67;16.45;;;;;;;;;;4957163;28;20171;-76
2023/10/03 06:55:24;;;;;;;27.58;16.35;;;;;;;;;;4954779;28;20034;-74
2023/10/03 06:57:50;;;;;;;26.55;14.70;;;;;;;;;;4963291;28;20106;-75
2023/10/03 07:00:17;;;;;;;27.38;15.85;;;;;;;;;;4959149;28;20035;-75
2023/10/03 07:02:44;;;;;;;29.75;16.00;;;;;;;;;;4956826;28;20061;-74
2023/10/03 07:05:12;;;;;;;32.08;16.92;;;;;;;;;;4948591;28;20043;-75
2023/10/03 07:07:37;;;;;;;26.25;15.85;;;;;;;;;;4958473;28;20045;-76
2023/10/03 07:10:04;;;;;;;30.52;16.77;;;;;;;;;;4963403;28;20035;-77
2023/10/03 07:12:30;;;;;;;30.13;16.77;;;;;;;;;;4955431;28;20046;-76
2023/10/03 07:14:55;;;;;;;31.92;16.75;;;;;;;;;;4960976;28;20026;-77
2023/10/03 07:17:22;;;;;;;26.10;16.25;;;;;;;;;;4963433;28;20038;-77
2023/10/03 07:19:48;;;;;;;28.95;16.25;;;;;;;;;;4960911;28;20037;-75
2023/10/03 07:22:14;;;;;;;26.98;15.70;;;;;;;;;;4960516;28;20098;-75
2023/10/03 07:24:40;;;;;;;27.50;16.13;;;;;;;;;;4962339;28;20038;-73
2023/10/03 07:27:07;;;;;;;25.33;14.88;;;;;;;;;;4962630;28;20054;-76
2023/10/03 07:29:36;;;;;;;23.77;14.20;;;;;;;;;;4961298;28;20034;-75
2023/10/03 07:32:03;;;;;;;24.58;14.20;;;;;;;;;;4959951;28;20113;-76
2023/10/03 07:34:28;;;;;;;21.65;14.38;;;;;;;;;;4961186;28;20075;-75
2023/10/03 07:36:54;;;;;;;23.25;14.82;;;;;;;;;;4963442;28;20129;-76
2023/10/03 07:39:21;;;;;;;25.58;14.40;;;;;;;;;;4960320;28;20053;-76
2023/10/03 07:41:51;;;;;;;23.80;15.40;;;;;;;;;;4962645;28;20133;-74
2023/10/03 07:44:18;;;;;;;29.15;14.50;;;;;;;;;;4963270;28;20706;-76
2023/10/03 07:46:44;;;;;;;28.98;15.52;;;;;;;;;;4959668;28;20058;-75
2023/10/03 07:49:10;;;;;;;24.20;14.30;;;;;;;;;;4956057;28;20480;-76
2023/10/03 07:51:35;;;;;;;23.80;14.73;;;;;;;;;;4961464;28;20596;-75
2023/10/03 07:54:03;;;;;;;23.85;14.48;;;;;;;;;;4957806;28;20485;-76
2023/10/03 07:56:32;;;;;;;21.02;14.13;;;;;;;;;;4954836;28;20035;-76
2023/10/03 07:59:02;;;;;;;23.25;14.65;;;;;;;;;;4955810;28;20038;-76
2023/10/03 08:01:29;;;;;;;25.55;15.77;;;;;;;;;;4961953;28;20035;-76
2023/10/03 08:03:56;;;;;;;22.80;14.77;;;;;;;;;;4963076;28;20054;-76
2023/10/03 08:06:23;;;;;;;21.95;14.85;;;;;;;;;;4959827;28;20398;-75
2023/10/03 08:08:52;;;;;;;24.25;14.63;;;;;;;;;;4961647;28;20080;-77
2023/10/03 08:11:22;;;;;;;21.92;14.70;;;;;;;;;;4957843;28;20169;-76
2023/10/03 08:13:49;;;;;;;24.65;15.52;;;;;;;;;;4961637;28;20026;-75
2023/10/03 08:16:15;;;;;;;21.73;14.68;;;;;;;;;;4961379;28;20627;-76
2023/10/03 08:18:46;;;;;;;25.48;14.65;;;;;;;;;;4956852;28;20125;-76
2023/10/03 08:21:14;;;;;;;22.42;14.45;;;;;;;;;;4962171;28;20050;-74
2023/10/03 08:23:40;;;;;;;21.23;14.18;;;;;;;;;;4957519;28;20054;-75
2023/10/03 08:26:05;;;;;;;22.25;14.40;;;;;;;;;;4961748;28;20038;-73
2023/10/03 08:28:32;;;;;;;18.85;13.07;;;;;;;;;;4962975;28;20165;-75
2023/10/03 08:31:06;;;;;;;20.92;13.02;;;;;;;;;;4963021;28;20100;-75
2023/10/03 08:33:36;;;;;;;17.33;12.27;;;;;;;;;;4959213;28;20177;-76
2023/10/03 08:36:14;;;;;;;13.98;11.32;;;;;;;;;;4959780;28;20045;-74
2023/10/03 08:38:45;;;;;;;14.38;11.68;;;;;;;;;;4962582;28;20083;-74
2023/10/03 08:41:16;;;;;;;14.38;11.23;;;;;;;;;;4958201;28;20043;-75
2023/10/03 08:43:45;;;;;;;16.08;11.30;;;;;;;;;;4958647;28;20105;-76
2023/10/03 08:46:15;;;;;;;;;;;;;;;;;;4957601;28;20047;-76
2023/10/03 08:48:43;;;;;;;14.10;10.90;;;;;;;;;;4955728;28;19930;-75
2023/10/03 08:51:13;;;;;;;14.07;10.43;;;;;;;;;;4952343;28;20501;-74
2023/10/03 08:53:41;;;;;;;10.30;9.23;;;;;;;;;;4953274;28;20047;-73
2023/10/03 08:56:08;;;;;;;13.32;9.40;;;;;;;;;;4954418;28;20039;-75
2023/10/03 08:58:34;;;;;;;11.23;9.50;;;;;;;;;;4958275;28;20030;-73
2023/10/03 09:01:02;;;;;;;11.32;9.40;;;;;;;;;;4953815;28;20101;-75
2023/10/03 09:03:29;;;;;;;10.27;9.30;;;;;;;;;;4952725;28;20759;-75
2023/10/03 09:05:58;;;;;;;11.80;9.77;;;;;;;;;;4953167;28;20038;-75
2023/10/03 09:08:26;;;;;;;;;;;;;;;;;;4952847;28;20039;-75
2023/10/03 09:10:51;;;;;;;11.90;9.48;;;;;;;;;;4949841;28;20621;-76
2023/10/03 09:13:27;;;;;;;11.13;9.38;;;;;;;;;;4950584;28;20047;-76
2023/10/03 09:16:14;;;;;;;11.68;9.65;;;;;;;;;;4957467;28;20039;-76
2023/10/03 09:18:41;;;;;;;11.93;9.70;;;;;;;;;;4952489;28;20453;-75
2023/10/03 09:21:45;;;;;;;11.70;9.68;;;;;;;;;;4950260;28;20043;-72
2023/10/03 09:24:17;;;;;;;14.63;9.73;;;;;;;;;;4946910;28;20051;-76
2023/10/03 09:26:46;;;;;;;11.02;9.50;;;;;;;;;;4949055;28;20078;-75
2023/10/03 09:29:32;;;;;;;10.80;9.20;;;;;;;;;;4949439;28;20065;-73
2023/10/03 09:32:13;;;;;;;12.88;9.55;;;;;;;;;;4945773;28;20042;-75
2023/10/03 09:34:41;;;;;;;10.60;9.52;;;;;;;;;;4949537;28;20038;-75
2023/10/03 09:37:07;;;;;;;11.60;9.02;;;;;;;;;;4949675;28;20802;-75
2023/10/03 09:39:39;;;;;;;14.75;9.55;;;;;;;;;;4943429;28;20797;-72
2023/10/03 09:42:15;;;;;;;11.25;8.93;;;;;;;;;;4942751;28;20413;-75
2023/10/03 09:44:46;;;;;;;10.18;9.13;;;;;;;;;;4950978;28;20041;-76
2023/10/03 09:47:13;;;;;;;10.35;9.32;;;;;;;;;;4952298;28;20057;-74
2023/10/03 09:49:40;;;;;;;10.75;9.70;;;;;;;;;;4950757;28;20031;-73
2023/10/03 09:52:23;;;;;;;10.18;9.18;;;;;;;;;;4950581;28;20047;-75
2023/10/03 09:54:59;;;;;;;10.30;8.98;;;;;;;;;;4947523;28;20042;-77
2023/10/03 09:57:29;;;;;;;10.40;9.40;;;;;;;;;;4947894;28;20043;-74
2023/10/03 09:59:55;;;;;;;11.52;9.57;;;;;;;;;;4950980;28;20503;-75
2023/10/03 10:02:37;;;;;;;10.88;9.60;;;;;;;;;;4951241;28;20719;-73
2023/10/03 10:05:07;;;;;;;11.65;8.77;;;;;;;;;;4951485;28;20033;-74
2023/10/03 10:07:50;;;;;;;10.73;8.98;;;;;;;;;;4949416;28;20031;-76
2023/10/03 10:10:19;;;;;;;9.55;8.65;;;;;;;;;;4952185;28;20031;-76
2023/10/03 10:13:14;;;;;;;10.82;9.20;;;;;;;;;;4956522;28;20126;-77
2023/10/03 10:16:07;;;;;;;9.55;8.65;;;;;;;;;;4953961;28;20042;-75
2023/10/03 10:18:45;;;;;;;9.90;8.98;;;;;;;;;;4958974;28;20519;-77
2023/10/03 10:21:36;;;;;;;11.27;9.02;;;;;;;;;;4952512;28;20058;-77
2023/10/03 10:24:20;;;;;;;12.20;8.50;;;;;;;;;;4954957;28;20507;-76
2023/10/03 10:26:52;;;;;;;9.50;8.60;;;;;;;;;;4945442;28;20046;-76
2023/10/03 10:29:24;;;;;;;11.85;9.07;;;;;;;;;;4954656;28;20039;-75
2023/10/03 10:32:00;;;;;;;11.68;9.00;;;;;;;;;;4949709;28;20058;-76
2023/10/03 10:34:29;;;;;;;11.57;9.70;;;;;;;;;;4953547;28;20029;-74
2023/10/03 10:37:02;;;;;;;10.38;9.20;;;;;;;;;;4952913;28;20572;-75
2023/10/03 10:40:09;;;;;;;10.70;9.60;;;;;;;;;;4951526;28;20039;-76
2023/10/03 10:43:16;;;;;;;11.10;9.98;;;;;;;;;;4953497;28;20128;-74
2023/10/03 10:45:44;;;;;;;10.07;9.07;;;;;;;;;;4892392;29;20040;-74
2023/10/03 10:48:12;;;;;;;10.27;8.43;;;;;;;;;;4889273;29;20044;-75
2023/10/03 10:51:02;;;;;;;9.80;9.00;;;;;;;;;;4891205;29;20044;-75
2023/10/03 10:53:43;;;;;;;10.45;8.88;;;;;;;;;;4890263;29;20155;-75
2023/10/03 10:56:12;;;;;;;10.15;9.10;;;;;;;;;;4894781;29;20040;-74
2023/10/03 10:58:51;;;;;;;13.73;9.60;;;;;;;;;;4890599;29;20501;-74
2023/10/03 11:01:21;;;;;;;10.02;9.13;;;;;;;;;;4877784;29;20044;-74
2023/10/03 11:03:47;;;;;;;11.80;9.60;;;;;;;;;;4883437;29;20057;-74
2023/10/03 11:06:15;;;;;;;10.93;9.65;;;;;;;;;;4892010;29;20053;-74
2023/10/03 11:08:50;;;;;;;10.68;9.75;;;;;;;;;;4894895;29;20043;-75
2023/10/03 11:11:16;;;;;;;10.77;9.48;;;;;;;;;;4887433;29;20132;-73
2023/10/03 11:13:51;;;;;;;10.60;9.50;;;;;;;;;;4881647;29;20044;-74
2023/10/03 11:16:25;;;;;;;13.02;9.68;;;;;;;;;;4889291;29;20123;-74
2023/10/03 11:18:52;;;;;;;11.35;9.73;;;;;;;;;;4903324;28;20433;-74
2023/10/03 11:21:18;;;;;;;11.05;10.05;;;;;;;;;;4958591;28;20045;-73
2023/10/03 11:24:09;;;;;;;10.93;10.02;;;;;;;;;;4952662;28;20058;-75
2023/10/03 11:26:45;;;;;;;10.35;9.30;;;;;;;;;;4960459;28;20039;-76
2023/10/03 11:29:11;;;;;;;10.50;9.50;;;;;;;;;;4959726;28;20330;-77
2023/10/03 11:31:39;;;;;;;13.00;9.93;;;;;;;;;;4960411;28;20100;-75
2023/10/03 11:34:05;;;;;;;10.50;9.50;;;;;;;;;;4961974;28;20043;-74
2023/10/03 11:36:44;;;;;;;10.07;9.27;;;;;;;;;;4962720;28;20036;-76
2023/10/03 11:39:12;;;;;;;11.13;9.90;;;;;;;;;;4960660;28;20039;-76
2023/10/03 11:41:39;;;;;;;12.40;10.00;;;;;;;;;;4958522;28;20045;-73
2023/10/03 11:44:22;;;;;;;12.88;9.77;;;;;;;;;;4954778;28;20130;-74
2023/10/03 11:46:48;;;;;;;10.27;9.25;;;;;;;;;;4957898;28;20034;-75
2023/10/03 11:49:15;;;;;;;11.00;10.00;;;;;;;;;;4949673;28;20061;-75
2023/10/03 11:51:45;;;;;;;10.25;9.23;;;;;;;;;;4961657;28;20804;-76
2023/10/03 11:54:13;;;;;;;11.02;9.63;;;;;;;;;;4955556;28;20052;-74
2023/10/03 11:56:48;;;;;;;11.98;9.65;;;;;;;;;;4961119;28;20691;-74
2023/10/03 11:59:15;;;;;;;12.85;9.70;;;;;;;;;;4947595;28;20122;-74
2023/10/03 12:01:48;;;;;;;11.10;10.00;;;;;;;;;;4959989;28;20053;-74
2023/10/03 12:04:15;;;;;;;13.63;10.40;;;;;;;;;;4950099;28;20043;-74
2023/10/03 12:06:41;;;;;;;11.23;10.07;;;;;;;;;;4952676;28;20776;-75
2023/10/03 12:09:08;;;;;;;10.88;9.65;;;;;;;;;;4946106;28;20130;-74
2023/10/03 12:11:40;;;;;;;12.55;9.68;;;;;;;;;;4948727;28;20094;-74
2023/10/03 12:14:06;;;;;;;11.48;10.20;;;;;;;;;;4948958;28;20477;-74
2023/10/03 12:16:32;;;;;;;12.32;9.52;;;;;;;;;;4952976;28;20041;-75
2023/10/03 12:18:58;;;;;;;13.57;10.35;;;;;;;;;;4954072;28;20133;-74
2023/10/03 12:21:25;;;;;;;12.40;10.10;;;;;;;;;;4950354;28;20042;-74
2023/10/03 12:23:51;;;;;;;15.40;10.57;;;;;;;;;;4949424;28;20030;-74
2023/10/03 12:26:16;;;;;;;11.60;10.27;;;;;;;;;;4949478;28;20222;-74
2023/10/03 12:28:42;;;;;;;12.02;10.73;;;;;;;;;;4950549;28;20528;-75
2023/10/03 12:31:09;;;;;;;12.60;10.15;;;;;;;;;;4945342;28;20047;-75
2023/10/03 12:33:35;;;;;;;16.77;11.10;;;;;;;;;;4948440;28;20057;-74
2023/10/03 12:36:01;;;;;;;10.52;9.50;;;;;;;;;;4947305;28;20031;-76
2023/10/03 12:38:27;;;;;;;14.00;9.50;;;;;;;;;;4950726;28;20564;-75
2023/10/03 12:40:53;;;;;;;15.85;10.95;;;;;;;;;;4953868;28;20119;-75
2023/10/03 12:43:19;;;;;;;14.25;10.13;;;;;;;;;;4948675;28;20039;-75
2023/10/03 12:45:45;;;;;;;12.30;10.70;;;;;;;;;;4950507;28;20050;-74
2023/10/03 12:48:10;;;;;;;15.50;9.60;;;;;;;;;;4948850;28;20134;-75
2023/10/03 12:50:36;;;;;;;15.32;10.07;;;;;;;;;;4951638;28;20042;-75
2023/10/03 12:53:02;;;;;;;12.43;9.95;;;;;;;;;;4952535;28;20039;-75
2023/10/03 12:55:32;;;;;;;15.68;10.10;;;;;;;;;;4956022;28;20026;-74
2023/10/03 12:58:02;;;;;;;15.63;10.35;;;;;;;;;;4954752;28;20042;-74
2023/10/03 13:00:28;;;;;;;15.13;10.82;;;;;;;;;;4952871;28;20043;-73
2023/10/03 13:02:56;;;;;;;13.10;10.18;;;;;;;;;;4953561;28;20114;-73
2023/10/03 13:05:23;;;;;;;12.73;10.65;;;;;;;;;;4948747;28;20066;-74
2023/10/03 13:07:53;;;;;;;12.18;10.20;;;;;;;;;;4953664;28;20097;-74
2023/10/03 13:10:20;;;;;;;10.68;9.25;;;;;;;;;;4954341;28;20465;-75
2023/10/03 13:12:48;;;;;;;14.98;10.35;;;;;;;;;;4950711;28;20428;-75
2023/10/03 13:15:17;;;;;;;11.13;10.03;;;;;;;;;;4951057;28;20026;-74
2023/10/03 13:17:52;;;;;;;17.08;10.80;;;;;;;;;;4946527;28;20416;-76
2023/10/03 13:20:24;;;;;;;11.18;9.80;;;;;;;;;;4954134;28;20496;-76
2023/10/03 13:22:50;;;;;;;13.68;10.95;;;;;;;;;;4943194;28;20042;-75
2023/10/03 13:25:18;;;;;;;11.45;10.25;;;;;;;;;;4954022;28;20031;-75
2023/10/03 13:27:47;;;;;;;16.13;11.00;;;;;;;;;;4956271;28;20042;-74
2023/10/03 13:30:18;;;;;;;;;;;;;;;;;;4955098;28;20061;-75
2023/10/03 13:32:49;;;;;;;12.73;10.35;;;;;;;;;;4951309;28;19981;-76
2023/10/03 13:35:15;;;;;;;12.18;10.98;;;;;;;;;;4954919;28;20045;-74
2023/10/03 13:37:41;;;;;;;13.80;11.60;;;;;;;;;;4956403;28;20042;-74
2023/10/03 13:40:11;;;;;;;14.13;10.70;;;;;;;;;;4963007;28;20045;-75
2023/10/03 13:42:37;;;;;;;12.35;10.77;;;;;;;;;;4959961;28;20544;-75
2023/10/03 13:45:03;;;;;;;15.48;11.23;;;;;;;;;;4956308;28;20035;-73
2023/10/03 13:47:30;;;;;;;16.85;11.40;;;;;;;;;;4960050;28;20071;-74
2023/10/03 13:49:57;;;;;;;15.33;11.50;;;;;;;;;;4953861;28;20038;-73
2023/10/03 13:52:23;;;;;;;13.93;11.25;;;;;;;;;;4953411;28;20779;-74
2023/10/03 13:54:48;;;;;;;15.40;10.70;;;;;;;;;;4957586;28;20041;-73
2023/10/03 13:57:16;;;;;;;17.15;11.25;;;;;;;;;;4955916;28;20050;-75
2023/10/03 13:59:44;;;;;;;12.93;11.10;;;;;;;;;;4962094;28;20043;-74
2023/10/03 14:02:10;;;;;;;11.83;10.73;;;;;;;;;;4952081;28;20047;-75
2023/10/03 14:04:36;;;;;;;14.52;11.88;;;;;;;;;;4955697;28;20046;-75
2023/10/03 14:07:04;;;;;;;14.57;11.63;;;;;;;;;;4954488;28;20066;-73
2023/10/03 14:09:32;;;;;;;14.07;11.23;;;;;;;;;;4961251;28;20045;-75
2023/10/03 14:12:00;;;;;;;12.80;11.52;;;;;;;;;;4954660;28;20690;-76
2023/10/03 14:14:28;;;;;;;12.57;11.25;;;;;;;;;;4953461;28;20035;-76
2023/10/03 14:17:00;;;;;;;16.63;11.00;;;;;;;;;;4956725;28;20039;-74
2023/10/03 14:19:30;;;;;;;13.20;10.65;;;;;;;;;;4960529;28;20038;-75
2023/10/03 14:21:58;;;;;;;14.38;11.13;;;;;;;;;;4955811;28;20043;-77
2023/10/03 14:24:26;;;;;;;14.70;11.40;;;;;;;;;;4952877;28;20090;-76
2023/10/03 14:26:52;;;;;;;13.55;11.55;;;;;;;;;;4953930;28;20775;-75
2023/10/03 14:29:20;;;;;;;12.73;10.57;;;;;;;;;;4952072;28;20090;-76
2023/10/03 14:31:46;;;;;;;11.52;10.40;;;;;;;;;;4962551;28;20039;-75
2023/10/03 14:34:12;;;;;;;13.65;11.15;;;;;;;;;;4957142;28;20106;-75